createdAt,value
2017-11-06T00:00:05.411Z,7.9
2017-11-06T00:05:15.940Z,7.8
2017-11-06T00:10:15.176Z,7.8
2017-11-06T00:15:05.066Z,7.8
2017-11-06T00:20:15.744Z,7.8
2017-11-06T00:25:02.572Z,7.8
2017-11-06T00:30:05.756Z,7.8
2017-11-06T00:35:05.224Z,7.8
2017-11-06T00:40:05.482Z,7.7
2017-11-06T00:45:25.659Z,7.7
2017-11-06T00:50:05.063Z,7.7
2017-11-06T00:55:03.025Z,7.6
2017-11-06T01:00:02.675Z,7.6
2017-11-06T01:05:20.785Z,7.6
2017-11-06T01:10:20.984Z,7.5
2017-11-06T01:20:38.251Z,7.5
2017-11-06T01:25:05.766Z,7.5
2017-11-06T01:30:07.953Z,7.4
2017-11-06T01:35:20.992Z,7.4
2017-11-06T01:40:05.905Z,7.4
2017-11-06T01:45:15.943Z,7.4
2017-11-06T01:50:05.378Z,7.4
2017-11-06T01:55:21.033Z,7.3
2017-11-06T02:00:02.939Z,7.3
2017-11-06T02:05:27.665Z,7.3
2017-11-06T02:10:20.318Z,7.3
2017-11-06T02:15:02.492Z,7.3
2017-11-06T02:20:05.612Z,7.2
2017-11-06T02:25:10.104Z,7.2
2017-11-06T02:30:08.179Z,7.2
2017-11-06T02:35:15.178Z,7.2
2017-11-06T02:45:10.131Z,7.2
2017-11-06T02:50:03.165Z,7.2
2017-11-06T02:55:20.353Z,7.2
2017-11-06T03:00:03.266Z,7.2
2017-11-06T03:05:17.937Z,7.2
2017-11-06T03:10:07.913Z,7.1
2017-11-06T03:15:30.576Z,7.1
2017-11-06T03:20:37.867Z,7.1
2017-11-06T03:25:07.955Z,7.1
2017-11-06T03:30:20.259Z,7.1
2017-11-06T03:40:10.691Z,7.1
2017-11-06T03:45:08.103Z,7.1
2017-11-06T03:50:25.449Z,7.1
2017-11-06T03:55:18.383Z,7.1
2017-11-06T04:00:10.424Z,7
2017-11-06T04:05:23.576Z,7
2017-11-06T04:10:02.454Z,7
2017-11-06T04:15:04.953Z,6.9
2017-11-06T04:20:03.102Z,6.9
2017-11-06T04:25:07.595Z,6.8
2017-11-06T04:30:03.098Z,6.8
2017-11-06T04:35:10.162Z,6.8
2017-11-06T04:40:05.245Z,6.7
2017-11-06T04:45:20.334Z,6.7
2017-11-06T04:50:03.278Z,6.7
2017-11-06T04:55:02.711Z,6.6
2017-11-06T05:00:08.361Z,6.6
2017-11-06T05:05:07.775Z,6.5
2017-11-06T05:10:15.539Z,6.5
2017-11-06T05:15:05.278Z,6.5
2017-11-06T05:20:07.500Z,6.4
2017-11-06T05:25:17.970Z,6.4
2017-11-06T05:30:07.442Z,6.3
2017-11-06T05:35:25.578Z,3.1
2017-11-06T05:40:10.518Z,6.2
2017-11-06T05:45:02.804Z,6.2
2017-11-06T05:50:04.940Z,6.2
2017-11-06T05:55:07.860Z,6.1
2017-11-06T06:00:03.434Z,6.1
2017-11-06T06:05:07.777Z,6
2017-11-06T06:10:02.784Z,6
2017-11-06T06:15:15.340Z,6
2017-11-06T06:20:03.217Z,6
2017-11-06T06:25:05.122Z,5.9
2017-11-06T06:30:10.760Z,5.9
2017-11-06T06:35:37.951Z,5.8
2017-11-06T06:45:05.907Z,5.9
2017-11-06T06:50:15.549Z,5.9
2017-11-06T06:55:08.287Z,5.9
2017-11-06T07:00:07.915Z,5.9
2017-11-06T07:05:08.271Z,5.9
2017-11-06T07:15:05.674Z,6
2017-11-06T07:25:23.345Z,6
2017-11-06T07:35:05.620Z,6.2
2017-11-06T07:40:10.814Z,6.2
2017-11-06T07:45:05.619Z,6.2
2017-11-06T07:50:07.779Z,6.3
2017-11-06T07:55:13.152Z,6.3
2017-11-06T08:00:05.150Z,6.2
2017-11-06T08:05:05.547Z,6.2
2017-11-06T08:10:03.082Z,6.2
2017-11-06T08:20:07.594Z,6.2
2017-11-06T08:25:13.010Z,6.3
2017-11-06T08:30:05.014Z,6.4
2017-11-06T08:35:07.883Z,6.4
2017-11-06T08:40:05.410Z,6.4
2017-11-06T08:45:05.304Z,6.4
2017-11-06T08:50:03.364Z,6.4
2017-11-06T08:55:38.128Z,6.4
2017-11-06T09:00:23.635Z,6.5
2017-11-06T09:05:07.751Z,6.6
2017-11-06T09:10:05.305Z,6.7
2017-11-06T09:15:07.739Z,6.7
2017-11-06T09:20:10.849Z,6.9
2017-11-06T09:25:05.215Z,7
2017-11-06T09:30:08.323Z,7
2017-11-06T09:35:10.268Z,7.1
2017-11-06T09:40:05.362Z,7.2
2017-11-06T09:45:05.332Z,7.3
2017-11-06T09:50:07.528Z,7.4
2017-11-06T09:55:33.282Z,7.5
2017-11-06T10:00:12.697Z,7.5
2017-11-06T10:05:18.224Z,7.5
2017-11-06T10:10:23.457Z,7.5
2017-11-06T10:15:10.775Z,7.5
2017-11-06T10:20:15.572Z,7.6
2017-11-06T10:25:03.334Z,7.6
2017-11-06T10:35:12.666Z,7.8
2017-11-06T10:40:22.909Z,7.9
2017-11-06T10:45:22.900Z,8
2017-11-06T10:50:18.507Z,8
2017-11-06T10:55:25.556Z,8.1
2017-11-06T11:00:04.980Z,8.1
2017-11-06T11:05:05.478Z,8
2017-11-06T11:10:05.630Z,8.1
2017-11-06T11:15:03.050Z,8.1
2017-11-06T11:20:02.759Z,8.2
2017-11-06T11:25:05.781Z,8.2
2017-11-06T11:35:07.439Z,8.4
2017-11-06T11:40:25.410Z,8.5
2017-11-06T11:45:10.187Z,8.7
2017-11-06T11:50:05.820Z,8.8
2017-11-06T11:55:07.886Z,8.9
2017-11-06T12:00:25.260Z,9
2017-11-06T12:05:03.094Z,9
2017-11-06T12:10:23.575Z,9.3
2017-11-06T12:15:20.985Z,9.4
2017-11-06T12:20:18.267Z,9.5
2017-11-06T12:25:17.795Z,9.5
2017-11-06T12:30:18.649Z,9.5
2017-11-06T12:35:02.957Z,9.5
2017-11-06T12:40:18.435Z,9.8
2017-11-06T12:45:05.849Z,10
2017-11-06T12:55:12.890Z,10.7
2017-11-06T13:00:05.091Z,10.8
2017-11-06T13:05:05.730Z,10.8
2017-11-06T13:10:07.579Z,10.9
2017-11-06T13:15:05.239Z,10.9
2017-11-06T13:20:05.006Z,11
2017-11-06T13:25:08.270Z,10.9
2017-11-06T13:30:05.548Z,10.8
2017-11-06T13:35:07.774Z,10.7
2017-11-06T13:40:15.763Z,10.6
2017-11-06T13:45:03.254Z,10.7
2017-11-06T13:50:03.048Z,10.6
2017-11-06T13:55:02.760Z,10.5
2017-11-06T14:00:05.138Z,10.5
2017-11-06T14:05:03.221Z,10.5
2017-11-06T14:10:10.144Z,10.4
2017-11-06T14:15:17.902Z,10.1
2017-11-06T14:20:02.519Z,10.1
2017-11-06T14:25:08.258Z,9.7
2017-11-06T14:30:13.101Z,9.7
2017-11-06T14:35:12.743Z,0.3
2017-11-06T14:40:18.076Z,10.1
2017-11-06T14:45:08.107Z,10.2
2017-11-06T14:50:05.373Z,10.2
2017-11-06T14:55:07.557Z,9.9
2017-11-06T15:00:18.346Z,9.7
2017-11-06T15:05:07.890Z,9.6
2017-11-06T15:10:05.631Z,9.4
2017-11-06T15:15:05.721Z,9.3
2017-11-06T15:20:05.466Z,9.2
2017-11-06T15:25:17.713Z,9.1
2017-11-06T15:30:08.369Z,9
2017-11-06T15:35:05.360Z,9
2017-11-06T15:40:18.355Z,8.8
2017-11-06T15:45:18.358Z,8.7
2017-11-06T15:50:15.676Z,8.7
2017-11-06T15:55:05.109Z,8.6
2017-11-06T16:00:05.956Z,8.5
2017-11-06T16:10:08.334Z,8.3
2017-11-06T16:15:02.443Z,8.3
2017-11-06T16:20:28.548Z,8.1
2017-11-06T16:25:12.939Z,7.9
2017-11-06T16:30:05.111Z,7.7
2017-11-06T16:35:25.933Z,7.5
2017-11-06T16:40:04.993Z,7.4
2017-11-06T16:45:17.693Z,7.3
2017-11-06T16:50:13.368Z,7.2
2017-11-06T16:55:05.343Z,7.2
2017-11-06T17:00:20.210Z,7.3
2017-11-06T17:05:03.083Z,7.3
2017-11-06T17:10:05.928Z,7.2
2017-11-06T17:15:08.415Z,7.2
2017-11-06T17:20:33.363Z,7.2
2017-11-06T17:25:02.524Z,7.2
2017-11-06T17:30:05.797Z,7
2017-11-06T17:35:07.824Z,6.9
2017-11-06T17:40:08.036Z,6.9
2017-11-06T17:45:05.495Z,6.9
2017-11-06T17:55:28.346Z,6.9
2017-11-06T18:00:33.140Z,6.9
2017-11-06T18:05:08.251Z,6.8
2017-11-06T18:10:18.555Z,6.8
2017-11-06T18:15:05.772Z,6.8
2017-11-06T18:20:25.786Z,6.7
2017-11-06T18:25:08.421Z,6.7
2017-11-06T18:30:38.459Z,6.6
2017-11-06T18:35:02.429Z,6.6
2017-11-06T18:40:05.243Z,6.5
2017-11-06T18:50:03.153Z,6.5
2017-11-06T18:55:05.082Z,6.4
2017-11-06T19:00:03.128Z,6.3
2017-11-06T19:10:10.351Z,6.3
2017-11-06T19:15:27.968Z,6.3
2017-11-06T19:20:08.390Z,6.2
2017-11-06T19:25:05.241Z,6.1
2017-11-06T19:35:02.754Z,6.1
2017-11-06T19:40:07.972Z,5.9
2017-11-06T19:50:10.090Z,5.8
2017-11-06T19:55:25.677Z,5.8
2017-11-06T20:00:02.533Z,5.8
2017-11-06T20:05:02.925Z,5.8
2017-11-06T20:10:08.101Z,5.6
2017-11-06T20:15:10.526Z,5.5
2017-11-06T20:20:15.140Z,5.5
2017-11-06T20:25:10.477Z,5.3
2017-11-06T20:30:32.883Z,5.2
2017-11-06T20:35:05.294Z,5.2
2017-11-06T20:40:02.855Z,5.2
2017-11-06T20:45:22.887Z,5.1
2017-11-06T20:50:08.275Z,5
2017-11-06T20:55:02.554Z,5
2017-11-06T21:00:08.189Z,5
2017-11-06T21:05:04.984Z,4.9
2017-11-06T21:10:07.578Z,4.9
2017-11-06T21:15:05.872Z,5
2017-11-06T21:20:13.057Z,5
2017-11-06T21:25:08.340Z,4.9
2017-11-06T21:30:15.547Z,5
2017-11-06T21:35:18.464Z,5
2017-11-06T21:40:02.423Z,5
2017-11-06T21:45:15.897Z,4.9
2017-11-06T21:50:02.876Z,5
2017-11-06T21:55:18.414Z,4.8
2017-11-06T22:00:02.816Z,4.8
2017-11-06T22:05:03.113Z,4.7
2017-11-06T22:10:05.745Z,4.6
2017-11-06T22:15:10.599Z,4.6
2017-11-06T22:20:07.684Z,4.6
2017-11-06T22:25:10.455Z,4.6
2017-11-06T22:30:35.386Z,4.6
2017-11-06T22:35:17.999Z,4.6
2017-11-06T22:40:20.620Z,4.6
2017-11-06T22:45:05.220Z,4.6
2017-11-06T22:50:13.384Z,4.5
2017-11-06T22:55:38.050Z,4.5
2017-11-06T23:00:05.750Z,4.5
2017-11-06T23:05:04.956Z,4.6
2017-11-06T23:10:30.456Z,4.6
2017-11-06T23:20:02.911Z,4.6
2017-11-06T23:25:05.713Z,4.7
2017-11-06T23:30:05.389Z,4.7
2017-11-06T23:35:10.627Z,4.6
2017-11-06T23:40:28.505Z,4.7
2017-11-06T23:45:08.028Z,4.7
2017-11-06T23:55:30.658Z,4.8
